createdAt,value
2023-08-27T00:00:33.311Z,23.26
2023-08-27T00:03:01.937Z,23.27
2023-08-27T00:05:30.621Z,23.26
2023-08-27T00:07:59.059Z,23.26
2023-08-27T00:10:27.635Z,23.25
2023-08-27T00:12:57.741Z,23.28
2023-08-27T00:15:26.430Z,23.28
2023-08-27T00:17:54.952Z,23.26
2023-08-27T00:20:23.845Z,23.22
2023-08-27T00:22:52.236Z,23.21
2023-08-27T00:25:20.714Z,23.20
2023-08-27T00:27:49.190Z,23.20
2023-08-27T00:30:19.009Z,23.17
2023-08-27T00:32:47.468Z,23.18
2023-08-27T00:35:15.936Z,23.16
2023-08-27T00:37:44.491Z,23.15
2023-08-27T00:40:13.072Z,23.15
2023-08-27T00:42:41.439Z,23.13
2023-08-27T00:45:10.774Z,23.13
2023-08-27T00:47:41.759Z,23.14
2023-08-27T00:50:11.826Z,23.14
2023-08-27T00:52:40.485Z,23.15
2023-08-27T00:55:09.637Z,23.12
2023-08-27T00:57:39.629Z,23.10
2023-08-27T01:00:10.910Z,23.08
2023-08-27T01:02:43.982Z,23.07
2023-08-27T01:05:14.724Z,23.08
2023-08-27T01:07:50.161Z,23.10
2023-08-27T01:10:28.970Z,23.07
2023-08-27T01:13:04.109Z,23.05
2023-08-27T01:15:34.494Z,23.05
2023-08-27T01:18:07.700Z,23.02
2023-08-27T01:20:36.176Z,23.03
2023-08-27T01:23:06.839Z,23.02
2023-08-27T01:25:43.818Z,23.04
2023-08-27T01:28:17.422Z,23.04
2023-08-27T01:30:56.462Z,23.03
2023-08-27T01:33:28.006Z,23.01
2023-08-27T01:35:58.325Z,23.02
2023-08-27T01:38:28.494Z,22.99
2023-08-27T01:40:56.999Z,22.94
2023-08-27T01:43:25.451Z,22.94
2023-08-27T01:45:53.979Z,22.87
2023-08-27T01:48:22.626Z,22.75
2023-08-27T01:50:51.031Z,22.49
2023-08-27T01:53:19.548Z,22.28
2023-08-27T01:55:49.408Z,22.16
2023-08-27T01:58:17.852Z,21.84
2023-08-27T02:00:46.319Z,21.73
2023-08-27T02:03:15.557Z,21.53
2023-08-27T02:05:44.018Z,21.53
2023-08-27T02:08:12.429Z,21.57
2023-08-27T02:10:40.841Z,21.57
2023-08-27T02:13:10.678Z,21.61
2023-08-27T02:15:41.199Z,21.69
2023-08-27T02:18:09.584Z,21.80
2023-08-27T02:20:38.137Z,21.88
2023-08-27T02:23:06.523Z,21.92
2023-08-27T02:25:34.959Z,21.88
2023-08-27T02:28:03.469Z,21.74
2023-08-27T02:30:33.329Z,21.32
2023-08-27T02:33:02.145Z,21.24
2023-08-27T02:35:30.875Z,20.95
2023-08-27T02:37:59.631Z,20.90
2023-08-27T02:40:28.096Z,20.78
2023-08-27T02:42:56.492Z,20.80
2023-08-27T02:45:24.943Z,20.77
2023-08-27T02:47:54.820Z,20.87
2023-08-27T02:50:23.201Z,20.63
2023-08-27T02:52:51.688Z,20.70
2023-08-27T02:55:20.282Z,20.79
2023-08-27T02:57:48.691Z,20.93
2023-08-27T03:00:18.085Z,21.04
2023-08-27T03:02:46.573Z,21.13
2023-08-27T03:05:16.542Z,21.21
2023-08-27T03:07:45.038Z,21.28
2023-08-27T03:10:16.076Z,21.36
2023-08-27T03:12:44.460Z,21.40
2023-08-27T03:15:12.944Z,21.48
2023-08-27T03:17:41.358Z,21.51
2023-08-27T03:20:11.007Z,21.55
2023-08-27T03:22:40.792Z,21.56
2023-08-27T03:25:09.588Z,21.57
2023-08-27T03:27:38.174Z,21.59
2023-08-27T03:30:07.438Z,21.57
2023-08-27T03:32:35.850Z,21.42
2023-08-27T03:35:04.413Z,21.38
2023-08-27T03:37:33.389Z,21.25
2023-08-27T03:40:04.109Z,21.15
2023-08-27T03:42:32.548Z,21.11
2023-08-27T03:45:02.017Z,21.09
2023-08-27T03:47:30.548Z,21.09
2023-08-27T03:49:59.017Z,21.04
2023-08-27T03:52:27.463Z,21.10
2023-08-27T03:54:56.119Z,21.04
2023-08-27T03:57:26.439Z,21.06
2023-08-27T03:59:54.939Z,20.87
2023-08-27T04:02:23.340Z,20.97
2023-08-27T04:04:51.943Z,20.99
2023-08-27T04:07:20.357Z,21.00
2023-08-27T04:09:49.713Z,21.03
2023-08-27T04:12:18.626Z,21.06
2023-08-27T04:14:48.451Z,21.08
2023-08-27T04:17:16.904Z,21.07
2023-08-27T04:19:45.655Z,21.10
2023-08-27T04:22:14.591Z,21.12
2023-08-27T04:24:44.522Z,21.13
2023-08-27T04:27:13.036Z,21.12
2023-08-27T04:29:41.554Z,21.15
2023-08-27T04:32:11.505Z,21.17
2023-08-27T04:34:39.991Z,21.17
2023-08-27T04:37:08.735Z,21.16
2023-08-27T04:39:37.264Z,21.22
2023-08-27T04:42:06.163Z,21.23
2023-08-27T04:44:34.562Z,21.22
2023-08-27T04:47:03.552Z,21.25
2023-08-27T04:49:33.493Z,21.23
2023-08-27T04:52:01.883Z,21.24
2023-08-27T04:54:30.358Z,21.24
2023-08-27T04:56:58.795Z,21.24
2023-08-27T04:59:27.221Z,21.24
2023-08-27T05:01:56.631Z,21.24
2023-08-27T05:04:25.397Z,21.20
2023-08-27T05:06:55.302Z,21.25
2023-08-27T05:09:24.131Z,21.23
2023-08-27T05:11:52.548Z,21.20
2023-08-27T05:14:21.125Z,21.21
2023-08-27T05:16:49.587Z,21.20
2023-08-27T05:19:18.697Z,21.22
2023-08-27T05:21:47.272Z,21.23
2023-08-27T05:24:17.149Z,21.24
2023-08-27T05:26:45.878Z,21.25
2023-08-27T05:29:14.369Z,21.28
2023-08-27T05:31:42.762Z,21.20
2023-08-27T05:34:11.253Z,21.33
2023-08-27T05:36:39.652Z,21.36
2023-08-27T05:39:08.017Z,21.38
2023-08-27T05:41:38.039Z,21.41
2023-08-27T05:44:06.760Z,21.44
2023-08-27T05:46:35.333Z,21.47
2023-08-27T05:49:04.643Z,21.49
2023-08-27T05:51:33.207Z,21.47
2023-08-27T05:54:01.796Z,21.51
2023-08-27T05:56:30.274Z,21.55
2023-08-27T05:59:00.438Z,21.57
2023-08-27T06:01:28.975Z,21.62
2023-08-27T06:03:57.635Z,21.64
2023-08-27T06:06:26.185Z,21.70
2023-08-27T06:08:54.872Z,21.74
2023-08-27T06:11:23.672Z,21.67
2023-08-27T06:13:52.069Z,21.79
2023-08-27T06:16:21.973Z,21.83
2023-08-27T06:18:50.627Z,21.84
2023-08-27T06:21:19.438Z,21.85
2023-08-27T06:23:48.533Z,21.93
2023-08-27T06:26:17.031Z,21.99
2023-08-27T06:28:45.476Z,22.09
2023-08-27T06:31:14.028Z,22.05
2023-08-27T06:33:43.912Z,22.12
2023-08-27T06:36:12.412Z,22.32
2023-08-27T06:38:40.791Z,22.41
2023-08-27T06:41:09.288Z,22.52
2023-08-27T06:43:37.654Z,22.56
2023-08-27T06:46:06.389Z,22.64
2023-08-27T06:48:35.136Z,22.58
2023-08-27T06:51:05.968Z,22.64
2023-08-27T06:53:34.583Z,22.70
2023-08-27T06:56:03.201Z,22.74
2023-08-27T06:58:32.373Z,22.76
2023-08-27T07:01:00.904Z,22.74
2023-08-27T07:03:29.691Z,22.70
2023-08-27T07:05:58.232Z,22.73
2023-08-27T07:08:28.139Z,22.65
2023-08-27T07:10:57.805Z,22.69
2023-08-27T07:13:26.560Z,22.70
2023-08-27T07:15:55.066Z,22.76
2023-08-27T07:18:23.624Z,22.81
2023-08-27T07:20:54.066Z,22.81
2023-08-27T07:23:22.553Z,22.82
2023-08-27T07:25:52.404Z,22.90
2023-08-27T07:28:22.334Z,23.00
2023-08-27T07:30:52.088Z,23.03
2023-08-27T07:33:20.581Z,23.03
2023-08-27T07:35:49.161Z,23.19
2023-08-27T07:38:18.373Z,23.31
2023-08-27T07:40:46.884Z,23.36
2023-08-27T07:43:17.109Z,23.47
2023-08-27T07:45:45.502Z,23.54
2023-08-27T07:48:13.944Z,23.54
2023-08-27T07:50:42.859Z,23.63
2023-08-27T07:53:11.445Z,23.72
2023-08-27T07:55:39.835Z,23.77
2023-08-27T07:58:09.164Z,23.84
2023-08-27T08:00:40.041Z,23.88
2023-08-27T08:03:08.609Z,23.93
2023-08-27T08:05:37.360Z,23.96
2023-08-27T08:08:06.652Z,24.05
2023-08-27T08:10:36.561Z,24.11
2023-08-27T08:13:06.397Z,24.15
2023-08-27T08:15:35.294Z,24.17
2023-08-27T08:18:05.739Z,24.04
2023-08-27T08:20:34.335Z,23.97
2023-08-27T08:23:02.745Z,23.98
2023-08-27T08:25:32.591Z,24.00
2023-08-27T08:28:01.177Z,24.11
2023-08-27T08:30:29.909Z,24.20
2023-08-27T08:32:58.432Z,24.07
2023-08-27T08:35:29.029Z,24.17
2023-08-27T08:37:57.698Z,24.24
2023-08-27T08:40:26.581Z,24.31
2023-08-27T08:43:01.133Z,24.40
2023-08-27T08:45:34.944Z,24.44
2023-08-27T08:48:04.569Z,24.43
2023-08-27T08:50:37.455Z,24.50
2023-08-27T08:53:15.573Z,24.54
2023-08-27T08:55:47.916Z,24.62
2023-08-27T08:58:17.850Z,24.69
2023-08-27T09:00:47.713Z,24.74
2023-08-27T09:03:18.272Z,24.79
2023-08-27T09:05:51.166Z,24.84
2023-08-27T09:08:20.820Z,24.74
2023-08-27T09:10:50.486Z,24.79
2023-08-27T09:13:21.867Z,24.82
2023-08-27T09:15:50.855Z,24.78
2023-08-27T09:18:19.727Z,24.84
2023-08-27T09:20:52.233Z,24.88
2023-08-27T09:23:20.759Z,24.94
2023-08-27T09:25:50.170Z,24.91
2023-08-27T09:28:20.224Z,24.90
2023-08-27T09:30:48.703Z,24.86
2023-08-27T09:33:17.124Z,24.82
2023-08-27T09:35:45.621Z,24.85
2023-08-27T09:38:17.792Z,24.85
2023-08-27T09:40:46.687Z,24.77
2023-08-27T09:43:15.750Z,24.83
2023-08-27T09:45:44.200Z,24.78
2023-08-27T09:48:16.325Z,24.73
2023-08-27T09:50:44.748Z,24.71
2023-08-27T09:53:16.190Z,24.78
2023-08-27T09:55:44.736Z,24.53
2023-08-27T09:58:14.146Z,24.57
2023-08-27T10:00:45.114Z,24.61
2023-08-27T10:03:14.396Z,24.66
2023-08-27T10:05:45.054Z,24.69
2023-08-27T10:08:13.909Z,24.71
2023-08-27T10:10:43.809Z,24.72
2023-08-27T10:13:15.304Z,24.75
2023-08-27T10:15:45.905Z,24.74
2023-08-27T10:18:16.384Z,24.65
2023-08-27T10:20:45.560Z,24.61
2023-08-27T10:23:16.910Z,24.42
2023-08-27T10:25:48.987Z,24.28
2023-08-27T10:28:18.413Z,24.30
2023-08-27T10:30:47.605Z,24.34
2023-08-27T10:33:16.696Z,24.36
2023-08-27T10:35:47.077Z,24.14
2023-08-27T10:38:17.848Z,24.09
2023-08-27T10:40:48.044Z,24.05
2023-08-27T10:43:20.385Z,23.98
2023-08-27T10:45:50.576Z,23.85
2023-08-27T10:48:31.619Z,23.85
2023-08-27T10:51:14.801Z,23.91
2023-08-27T10:53:55.282Z,23.95
2023-08-27T10:56:37.829Z,24.00
2023-08-27T10:59:10.851Z,23.98
2023-08-27T11:01:39.908Z,23.88
2023-08-27T11:04:09.347Z,23.87
2023-08-27T11:06:45.213Z,23.84
2023-08-27T11:09:22.764Z,23.72
2023-08-27T11:11:54.993Z,23.76
2023-08-27T11:14:25.897Z,23.70
2023-08-27T11:16:58.931Z,23.72
2023-08-27T11:19:30.970Z,23.70
2023-08-27T11:24:45.243Z,23.57
2023-08-27T11:27:17.704Z,23.55
2023-08-27T11:29:48.230Z,23.52
2023-08-27T11:32:17.726Z,23.61
2023-08-27T11:34:47.205Z,23.43
2023-08-27T11:37:18.421Z,23.53
2023-08-27T11:39:48.081Z,23.55
2023-08-27T11:42:19.419Z,23.60
2023-08-27T11:44:52.537Z,23.63
2023-08-27T11:47:22.713Z,23.66
2023-08-27T11:49:54.049Z,23.67
2023-08-27T11:52:22.478Z,23.67
2023-08-27T11:54:51.483Z,23.69
2023-08-27T11:57:21.665Z,23.66
2023-08-27T11:59:51.074Z,23.55
2023-08-27T12:02:19.718Z,23.62
2023-08-27T12:04:48.884Z,23.61
2023-08-27T12:07:27.992Z,23.63
2023-08-27T12:09:56.423Z,23.62
2023-08-27T12:12:28.451Z,23.68
2023-08-27T12:14:59.654Z,23.76
2023-08-27T12:17:34.625Z,23.84
2023-08-27T12:20:04.893Z,23.88
2023-08-27T12:22:34.800Z,23.87
2023-08-27T12:25:04.132Z,23.89
2023-08-27T12:27:34.125Z,23.93
2023-08-27T12:30:02.640Z,23.95
2023-08-27T12:32:34.101Z,23.87
2023-08-27T12:35:03.485Z,23.74
2023-08-27T12:37:31.969Z,23.73
2023-08-27T12:40:00.350Z,23.80
2023-08-27T12:42:28.830Z,23.84
2023-08-27T12:44:58.720Z,23.84
2023-08-27T12:47:27.983Z,23.87
2023-08-27T12:49:56.626Z,23.74
2023-08-27T12:52:25.100Z,23.73
2023-08-27T12:54:53.532Z,23.79
2023-08-27T12:57:22.165Z,23.84
2023-08-27T12:59:50.590Z,23.87
2023-08-27T13:02:20.948Z,23.90
2023-08-27T13:04:49.383Z,23.90
2023-08-27T13:07:17.951Z,23.93
2023-08-27T13:09:46.452Z,23.93
2023-08-27T13:12:16.123Z,23.87
2023-08-27T13:14:44.786Z,23.83
2023-08-27T13:17:13.427Z,23.81
2023-08-27T13:19:43.475Z,23.79
2023-08-27T13:22:11.875Z,23.76
2023-08-27T13:24:40.773Z,23.69
2023-08-27T13:29:39.056Z,23.70
2023-08-27T13:32:07.945Z,23.74
2023-08-27T13:34:36.472Z,23.70
2023-08-27T13:37:06.585Z,23.69
2023-08-27T13:40:22.572Z,23.71
2023-08-27T13:42:51.973Z,23.73
2023-08-27T13:45:21.475Z,23.70
2023-08-27T13:47:51.005Z,23.51
2023-08-27T13:50:19.982Z,23.45
2023-08-27T13:52:49.494Z,23.45
2023-08-27T13:55:18.069Z,23.46
2023-08-27T13:57:48.160Z,23.50
2023-08-27T14:00:17.096Z,23.57
2023-08-27T14:02:45.711Z,23.55
2023-08-27T14:05:14.466Z,23.61
2023-08-27T14:07:43.225Z,23.57
2023-08-27T14:10:12.514Z,23.57
2023-08-27T14:12:40.967Z,23.58
2023-08-27T14:15:12.016Z,23.51
2023-08-27T14:17:41.082Z,23.47
2023-08-27T14:20:12.575Z,23.46
2023-08-27T14:22:41.037Z,23.40
2023-08-27T14:25:10.522Z,23.32
2023-08-27T14:27:39.052Z,23.32
2023-08-27T14:30:08.998Z,23.18
2023-08-27T14:32:38.938Z,23.17
2023-08-27T14:35:09.651Z,23.11
2023-08-27T14:37:39.548Z,22.99
2023-08-27T14:40:11.392Z,22.98
2023-08-27T14:42:39.870Z,22.91
2023-08-27T14:45:09.602Z,22.98
2023-08-27T14:47:39.853Z,22.94
2023-08-27T14:50:10.257Z,22.97
2023-08-27T14:52:39.062Z,22.92
2023-08-27T14:55:08.068Z,22.90
2023-08-27T14:57:36.453Z,22.84
2023-08-27T15:00:07.400Z,22.73
2023-08-27T15:02:35.908Z,22.72
2023-08-27T15:05:06.652Z,22.67
2023-08-27T15:07:35.185Z,22.57
2023-08-27T15:10:03.724Z,22.52
2023-08-27T15:12:32.271Z,22.59
2023-08-27T15:15:00.725Z,22.63
2023-08-27T15:17:29.254Z,22.58
2023-08-27T15:19:57.725Z,22.45
2023-08-27T15:22:27.648Z,22.42
2023-08-27T15:24:56.065Z,22.44
2023-08-27T15:27:24.555Z,22.34
2023-08-27T15:29:53.687Z,22.30
2023-08-27T15:32:22.473Z,22.31
2023-08-27T15:34:50.944Z,22.36
2023-08-27T15:37:19.383Z,22.40
2023-08-27T15:39:54.402Z,22.33
2023-08-27T15:42:30.584Z,22.31
2023-08-27T15:44:59.609Z,22.28
2023-08-27T15:47:31.287Z,22.24
2023-08-27T15:49:59.941Z,22.22
2023-08-27T15:52:28.580Z,22.21
2023-08-27T15:54:58.886Z,22.20
2023-08-27T15:57:28.282Z,22.15
2023-08-27T15:59:56.664Z,22.19
2023-08-27T16:02:25.359Z,22.23
2023-08-27T16:04:53.894Z,22.20
2023-08-27T16:07:22.529Z,22.18
2023-08-27T16:09:50.958Z,22.14
2023-08-27T16:12:20.797Z,22.13
2023-08-27T16:14:49.397Z,22.13
2023-08-27T16:17:17.882Z,22.15
2023-08-27T16:19:46.357Z,22.15
2023-08-27T16:22:14.894Z,22.14
2023-08-27T16:24:43.350Z,22.12
2023-08-27T16:27:11.816Z,22.14
2023-08-27T16:29:41.844Z,22.17
2023-08-27T16:32:10.275Z,22.17
2023-08-27T16:34:38.722Z,22.14
2023-08-27T16:37:07.149Z,22.12
2023-08-27T16:39:35.747Z,22.12
2023-08-27T16:42:04.275Z,22.13
2023-08-27T16:44:32.733Z,22.11
2023-08-27T16:47:02.588Z,22.07
2023-08-27T16:49:32.429Z,22.01
2023-08-27T16:52:00.892Z,22.05
2023-08-27T16:54:29.351Z,22.00
2023-08-27T16:56:58.051Z,21.99
2023-08-27T16:59:26.577Z,21.97
2023-08-27T17:01:55.069Z,21.98
2023-08-27T17:04:25.254Z,21.94
2023-08-27T17:06:55.644Z,21.86
2023-08-27T17:09:24.095Z,21.80
2023-08-27T17:11:52.575Z,21.69
2023-08-27T17:14:20.958Z,21.74
2023-08-27T17:16:49.445Z,21.76
2023-08-27T17:19:17.931Z,21.74
2023-08-27T17:21:47.805Z,21.69
2023-08-27T17:24:16.227Z,21.67
2023-08-27T17:26:44.634Z,21.87
2023-08-27T17:29:13.060Z,22.09
2023-08-27T17:31:42.659Z,22.21
2023-08-27T17:34:11.304Z,22.27
2023-08-27T17:36:39.942Z,22.26
2023-08-27T17:39:09.805Z,22.31
2023-08-27T17:41:49.743Z,22.31
2023-08-27T17:44:18.228Z,22.33
2023-08-27T17:46:47.760Z,22.31
2023-08-27T17:49:16.237Z,22.27
2023-08-27T17:51:44.771Z,22.24
2023-08-27T17:54:15.877Z,22.31
2023-08-27T17:56:44.414Z,22.30
2023-08-27T17:59:12.891Z,22.36
2023-08-27T18:01:41.413Z,22.33
2023-08-27T18:04:09.835Z,22.35
2023-08-27T18:06:38.293Z,22.25
2023-08-27T18:09:07.310Z,22.08
2023-08-27T18:11:37.163Z,22.02
2023-08-27T18:14:05.593Z,21.88
2023-08-27T18:16:34.033Z,21.80
2023-08-27T18:19:02.521Z,21.81
2023-08-27T18:21:30.911Z,21.83
2023-08-27T18:23:59.338Z,21.86
2023-08-27T18:26:27.878Z,21.72
2023-08-27T18:28:57.894Z,21.49
2023-08-27T18:31:26.452Z,21.46
2023-08-27T18:33:55.146Z,21.32
2023-08-27T18:36:23.693Z,21.18
2023-08-27T18:38:52.857Z,21.08
2023-08-27T18:41:24.289Z,21.08
2023-08-27T18:43:53.725Z,20.94
2023-08-27T18:46:25.059Z,20.94
2023-08-27T18:48:54.306Z,20.86
2023-08-27T18:51:22.876Z,20.73
2023-08-27T18:53:51.362Z,20.58
2023-08-27T18:56:20.657Z,20.45
2023-08-27T18:58:49.240Z,20.40
2023-08-27T19:01:18.373Z,20.31
2023-08-27T19:03:49.248Z,20.07
2023-08-27T19:06:18.390Z,20.06
2023-08-27T19:08:46.886Z,20.12
2023-08-27T19:11:15.724Z,20.06
2023-08-27T19:13:44.455Z,19.99
2023-08-27T19:16:13.164Z,19.91
2023-08-27T19:18:42.500Z,19.83
2023-08-27T19:21:13.406Z,19.79
2023-08-27T19:23:42.443Z,19.81
2023-08-27T19:26:17.263Z,19.88
2023-08-27T19:28:46.768Z,19.80
2023-08-27T19:31:17.948Z,19.79
2023-08-27T19:33:47.386Z,19.69
2023-08-27T19:36:18.516Z,19.56
2023-08-27T19:38:48.652Z,19.64
2023-08-27T19:41:18.491Z,19.70
2023-08-27T19:43:47.451Z,19.75
2023-08-27T19:46:16.046Z,19.78
2023-08-27T19:48:45.197Z,19.68
2023-08-27T19:51:13.719Z,19.70
2023-08-27T19:53:44.154Z,19.77
2023-08-27T19:56:13.275Z,19.80
2023-08-27T19:58:42.184Z,19.89
2023-08-27T20:01:13.235Z,19.96
2023-08-27T20:03:42.345Z,20.03
2023-08-27T20:06:11.935Z,20.00
2023-08-27T20:08:40.937Z,19.99
2023-08-27T20:11:11.230Z,20.01
2023-08-27T20:13:46.756Z,20.05
2023-08-27T20:16:15.404Z,20.04
2023-08-27T20:18:51.756Z,20.06
2023-08-27T20:21:26.485Z,20.05
2023-08-27T20:24:05.314Z,20.04
2023-08-27T20:26:46.311Z,19.98
2023-08-27T20:29:14.937Z,19.93
2023-08-27T20:31:50.284Z,19.95
2023-08-27T20:34:25.486Z,19.95
2023-08-27T20:36:53.938Z,19.97
2023-08-27T20:39:30.129Z,19.96
2023-08-27T20:42:04.843Z,20.02
2023-08-27T20:44:39.382Z,19.92
2023-08-27T20:47:08.272Z,19.87
2023-08-27T20:49:36.744Z,19.91
2023-08-27T20:52:05.767Z,19.77
2023-08-27T20:54:34.327Z,19.76
2023-08-27T20:57:04.555Z,19.65
2023-08-27T20:59:37.832Z,19.64
2023-08-27T21:02:11.281Z,19.52
2023-08-27T21:04:45.662Z,19.60
2023-08-27T21:07:18.254Z,19.67
2023-08-27T21:09:57.150Z,19.72
2023-08-27T21:12:27.085Z,19.68
2023-08-27T21:14:55.675Z,19.65
2023-08-27T21:17:24.246Z,19.65
2023-08-27T21:19:52.782Z,19.70
2023-08-27T21:22:21.255Z,19.68
2023-08-27T21:24:49.965Z,19.63
2023-08-27T21:27:18.436Z,19.62
2023-08-27T21:29:49.876Z,19.64
2023-08-27T21:32:18.438Z,19.66
2023-08-27T21:34:46.835Z,19.69
2023-08-27T21:37:16.048Z,19.64
2023-08-27T21:39:44.744Z,19.59
2023-08-27T21:42:13.247Z,19.57
2023-08-27T21:44:41.693Z,19.58
2023-08-27T21:47:11.922Z,19.55
2023-08-27T21:49:40.412Z,19.35
2023-08-27T21:52:08.890Z,19.43
2023-08-27T21:54:38.220Z,19.42
2023-08-27T21:57:07.223Z,19.45
2023-08-27T21:59:35.849Z,19.41
2023-08-27T22:02:04.482Z,19.43
2023-08-27T22:04:34.386Z,19.44
2023-08-27T22:07:04.106Z,19.42
2023-08-27T22:09:32.505Z,19.36
2023-08-27T22:12:00.986Z,19.38
2023-08-27T22:14:31.643Z,19.41
2023-08-27T22:17:00.285Z,19.43
2023-08-27T22:19:28.794Z,19.46
2023-08-27T22:21:58.711Z,19.41
2023-08-27T22:24:27.209Z,19.36
2023-08-27T22:26:55.781Z,19.36
2023-08-27T22:29:24.383Z,19.26
2023-08-27T22:31:53.161Z,19.25
2023-08-27T22:34:29.552Z,19.32
2023-08-27T22:37:04.788Z,19.31
2023-08-27T22:39:33.255Z,19.29
2023-08-27T22:42:01.962Z,19.26
2023-08-27T22:44:30.474Z,19.27
2023-08-27T22:46:59.099Z,19.29
2023-08-27T22:49:26.954Z,19.30
2023-08-27T22:51:55.511Z,19.33
2023-08-27T22:54:25.410Z,19.33
2023-08-27T22:56:53.933Z,19.29
2023-08-27T22:59:22.743Z,19.32
2023-08-27T23:01:51.831Z,19.31
2023-08-27T23:04:20.906Z,19.30
2023-08-27T23:06:49.675Z,19.33
2023-08-27T23:09:18.264Z,19.34
2023-08-27T23:11:48.110Z,19.36
2023-08-27T23:14:17.086Z,19.38
2023-08-27T23:16:45.541Z,19.41
2023-08-27T23:19:14.069Z,19.40
2023-08-27T23:21:42.459Z,19.42
2023-08-27T23:24:11.262Z,19.41
2023-08-27T23:26:39.732Z,19.43
2023-08-27T23:29:09.596Z,19.42
2023-08-27T23:31:38.152Z,19.39
2023-08-27T23:34:06.742Z,19.34
2023-08-27T23:36:35.204Z,19.34
2023-08-27T23:39:05.364Z,19.31
2023-08-27T23:41:33.907Z,19.22
2023-08-27T23:44:02.513Z,19.12
2023-08-27T23:46:32.757Z,19.11
2023-08-27T23:49:01.423Z,19.07
2023-08-27T23:51:29.820Z,18.98
2023-08-27T23:53:58.296Z,18.85
2023-08-27T23:56:26.719Z,18.83
2023-08-27T23:58:55.157Z,18.91
